PWSweather.com
Personal Weather Stations
Station Observations

YeovilGB

Lat: 50.949, Lon: -2.627

Elevation: 70

Station Type: Vantage Pro

http://www.yeovil-weather.me.uk/

High Low Average
Temperature 54.5°F12.5°C 36.0°F2.2°C 47.9°F8.8°C
Dew Point 50.7°F10.4°C 34.3°F1.3°C 44.9°F7.2°C
Winds 10.4 mph 16.7 kmh Calm Calm 4.0 mph WSW6.4 kmh WSW
Wind Gusts 20.7 mph33.3 kmh -- 8.0 mph12.9 kmh
Humidity 94% 84% 89%
Pressure 30.50 in1032.8 mb 30.33 in1027.1 mb -
Precipitation 0.02 in0.5 mm - -
Hour Temp Dew Point Humidity Winds Wind Gusts Pressure Precip Precip Rate Daily Precip Total
12:00 AM 50.1°F10.1°C 47.9°F8.8°C 92% 1.2 mph S1.9 kmh S 3.5 mph5.6 kmh 30.48 in1032.2 mb - 0.00 in0.0 mm 0.00 in0.0 mm
12:10 AM 50.1°F10.1°C 47.9°F8.8°C 92% 1.2 mph SSW1.9 kmh SSW 1.2 mph1.9 kmh 30.48 in1032.2 mb - 0.00 in0.0 mm 0.00 in0.0 mm
12:20 AM 50.1°F10.1°C 47.9°F8.8°C 92% Calm Calm -- 30.47 in1031.8 mb - 0.00 in0.0 mm 0.00 in0.0 mm
12:30 AM 50.1°F10.1°C 47.9°F8.8°C 92% Calm Calm -- 30.47 in1031.8 mb - 0.00 in0.0 mm 0.00 in0.0 mm
12:40 AM 50.1°F10.1°C 47.8°F8.8°C 92% 2.3 mph SW3.7 kmh SW 8.1 mph13.0 kmh 30.47 in1031.8 mb - 0.00 in0.0 mm 0.00 in0.0 mm
12:50 AM 50.0°F10.0°C 47.5°F8.6°C 91% Calm Calm -- 30.47 in1031.8 mb - 0.00 in0.0 mm 0.00 in0.0 mm
01:00 AM 50.0°F10.0°C 47.2°F8.4°C 90% Calm Calm 4.6 mph7.4 kmh 30.46 in1031.5 mb - 0.00 in0.0 mm 0.00 in0.0 mm
01:10 AM 50.2°F10.1°C 47.4°F8.6°C 90% 1.2 mph S1.9 kmh S 2.3 mph3.7 kmh 30.46 in1031.5 mb - 0.00 in0.0 mm 0.00 in0.0 mm
01:20 AM 50.1°F10.1°C 47.0°F8.3°C 89% 8.1 mph SW13.0 kmh SW 15.0 mph24.1 kmh 30.45 in1031.2 mb - 0.00 in0.0 mm 0.00 in0.0 mm
01:30 AM 50.4°F10.2°C 46.7°F8.2°C 87% 8.1 mph SW13.0 kmh SW 12.7 mph20.4 kmh 30.45 in1031.2 mb - 0.00 in0.0 mm 0.00 in0.0 mm
01:40 AM 50.6°F10.3°C 46.6°F8.1°C 86% 3.5 mph SW5.6 kmh SW 6.9 mph11.1 kmh 30.45 in1031.2 mb - 0.00 in0.0 mm 0.00 in0.0 mm
01:50 AM 50.6°F10.3°C 46.9°F8.3°C 87% 9.2 mph SW14.8 kmh SW 12.7 mph20.4 kmh 30.45 in1031.2 mb - 0.00 in0.0 mm 0.00 in0.0 mm
02:00 AM 50.5°F10.3°C 46.8°F8.2°C 87% 4.6 mph SSW7.4 kmh SSW 15.0 mph24.1 kmh 30.45 in1031.2 mb - 0.00 in0.0 mm 0.00 in0.0 mm
02:10 AM 50.3°F10.2°C 46.6°F8.1°C 87% 6.9 mph SW11.1 kmh SW 16.1 mph25.9 kmh 30.44 in1030.8 mb - 0.00 in0.0 mm 0.00 in0.0 mm
02:20 AM 50.2°F10.1°C 46.5°F8.1°C 87% 9.2 mph SW14.8 kmh SW 12.7 mph20.4 kmh 30.44 in1030.8 mb - 0.00 in0.0 mm 0.00 in0.0 mm
02:30 AM 50.1°F10.1°C 46.4°F8.0°C 87% 4.6 mph SW7.4 kmh SW 10.4 mph16.7 kmh 30.44 in1030.8 mb - 0.00 in0.0 mm 0.00 in0.0 mm
02:40 AM 49.9°F9.9°C 46.4°F8.0°C 88% 4.6 mph SW7.4 kmh SW 9.2 mph14.8 kmh 30.44 in1030.8 mb - 0.00 in0.0 mm 0.00 in0.0 mm
02:50 AM 49.8°F9.9°C 46.4°F8.0°C 88% 6.9 mph SSW11.1 kmh SSW 12.7 mph20.4 kmh 30.44 in1030.8 mb - 0.00 in0.0 mm 0.00 in0.0 mm
03:00 AM 49.8°F9.9°C 46.4°F8.0°C 88% 6.9 mph SW11.1 kmh SW 9.2 mph14.8 kmh 30.43 in1030.5 mb - 0.00 in0.0 mm 0.00 in0.0 mm
03:10 AM 49.9°F9.9°C 46.2°F7.9°C 87% 9.2 mph SW14.8 kmh SW 18.4 mph29.6 kmh 30.43 in1030.5 mb - 0.00 in0.0 mm 0.00 in0.0 mm
03:20 AM 50.1°F10.1°C 46.1°F7.8°C 86% 8.1 mph SW13.0 kmh SW 18.4 mph29.6 kmh 30.42 in1030.1 mb - 0.00 in0.0 mm 0.00 in0.0 mm
03:30 AM 50.0°F10.0°C 46.0°F7.8°C 86% 6.9 mph SW11.1 kmh SW 9.2 mph14.8 kmh 30.42 in1030.1 mb - 0.00 in0.0 mm 0.00 in0.0 mm
03:40 AM 49.8°F9.9°C 45.8°F7.7°C 86% 4.6 mph SW7.4 kmh SW 11.5 mph18.5 kmh 30.41 in1029.8 mb - 0.00 in0.0 mm 0.00 in0.0 mm
03:50 AM 49.7°F9.8°C 46.0°F7.8°C 87% 4.6 mph SW7.4 kmh SW 10.4 mph16.7 kmh 30.41 in1029.8 mb - 0.00 in0.0 mm 0.00 in0.0 mm
04:00 AM 49.7°F9.8°C 46.0°F7.8°C 87% 6.9 mph SW11.1 kmh SW 12.7 mph20.4 kmh 30.41 in1029.8 mb - 0.00 in0.0 mm 0.00 in0.0 mm
04:10 AM 49.6°F9.8°C 46.2°F7.9°C 88% 8.1 mph SW13.0 kmh SW 13.8 mph22.2 kmh 30.40 in1029.5 mb - 0.00 in0.0 mm 0.00 in0.0 mm
04:20 AM 49.6°F9.8°C 45.9°F7.7°C 87% 4.6 mph SSW7.4 kmh SSW 9.2 mph14.8 kmh 30.40 in1029.5 mb - 0.00 in0.0 mm 0.00 in0.0 mm
04:30 AM 49.7°F9.8°C 46.0°F7.8°C 87% 8.1 mph SW13.0 kmh SW 12.7 mph20.4 kmh 30.40 in1029.5 mb - 0.00 in0.0 mm 0.00 in0.0 mm
04:40 AM 49.7°F9.8°C 46.0°F7.8°C 87% 5.8 mph S9.3 kmh S 9.2 mph14.8 kmh 30.40 in1029.5 mb - 0.00 in0.0 mm 0.00 in0.0 mm
04:50 AM 49.7°F9.8°C 46.0°F7.8°C 87% 4.6 mph SW7.4 kmh SW 8.1 mph13.0 kmh 30.40 in1029.5 mb - 0.00 in0.0 mm 0.00 in0.0 mm
05:00 AM 49.7°F9.8°C 46.0°F7.8°C 87% 6.9 mph SW11.1 kmh SW 11.5 mph18.5 kmh 30.40 in1029.5 mb - 0.00 in0.0 mm 0.00 in0.0 mm
05:10 AM 49.7°F9.8°C 46.0°F7.8°C 87% 3.5 mph SSW5.6 kmh SSW 4.6 mph7.4 kmh 30.39 in1029.1 mb - 0.00 in0.0 mm 0.00 in0.0 mm
05:20 AM 49.7°F9.8°C 46.0°F7.8°C 87% 5.8 mph SW9.3 kmh SW 12.7 mph20.4 kmh 30.39 in1029.1 mb - 0.00 in0.0 mm 0.00 in0.0 mm
05:30 AM 49.8°F9.9°C 45.8°F7.7°C 86% 6.9 mph SSW11.1 kmh SSW 11.5 mph18.5 kmh 30.39 in1029.1 mb - 0.00 in0.0 mm 0.00 in0.0 mm
05:40 AM 49.9°F9.9°C 45.9°F7.7°C 86% 3.5 mph SW5.6 kmh SW 9.2 mph14.8 kmh 30.39 in1029.1 mb - 0.00 in0.0 mm 0.00 in0.0 mm
05:50 AM 49.9°F9.9°C 45.9°F7.7°C 86% 5.8 mph SW9.3 kmh SW 10.4 mph16.7 kmh 30.38 in1028.8 mb - 0.00 in0.0 mm 0.00 in0.0 mm
06:00 AM 49.9°F9.9°C 45.9°F7.7°C 86% 5.8 mph SW9.3 kmh SW 8.1 mph13.0 kmh 30.38 in1028.8 mb - 0.00 in0.0 mm 0.00 in0.0 mm
06:10 AM 49.8°F9.9°C 45.8°F7.7°C 86% 4.6 mph SW7.4 kmh SW 9.2 mph14.8 kmh 30.39 in1029.1 mb - 0.00 in0.0 mm 0.00 in0.0 mm
06:20 AM 49.8°F9.9°C 46.1°F7.8°C 87% 4.6 mph SSW7.4 kmh SSW 11.5 mph18.5 kmh 30.38 in1028.8 mb - 0.00 in0.0 mm 0.00 in0.0 mm
06:30 AM 49.7°F9.8°C 46.0°F7.8°C 87% 4.6 mph SSW7.4 kmh SSW 11.5 mph18.5 kmh 30.38 in1028.8 mb - 0.00 in0.0 mm 0.00 in0.0 mm
06:40 AM 49.7°F9.8°C 46.0°F7.8°C 87% 4.6 mph SSW7.4 kmh SSW 10.4 mph16.7 kmh 30.37 in1028.4 mb - 0.00 in0.0 mm 0.00 in0.0 mm
06:50 AM 49.7°F9.8°C 46.0°F7.8°C 87% 2.3 mph SSW3.7 kmh SSW 10.4 mph16.7 kmh 30.37 in1028.4 mb - 0.00 in0.0 mm 0.00 in0.0 mm
07:00 AM 49.6°F9.8°C 46.2°F7.9°C 88% 6.9 mph SSW11.1 kmh SSW 13.8 mph22.2 kmh 30.36 in1028.1 mb - 0.00 in0.0 mm 0.00 in0.0 mm
07:10 AM 49.5°F9.7°C 46.1°F7.8°C 88% 3.5 mph SW5.6 kmh SW 8.1 mph13.0 kmh 30.37 in1028.4 mb - 0.00 in0.0 mm 0.00 in0.0 mm
07:20 AM 49.4°F9.7°C 46.0°F7.8°C 88% 6.9 mph SSW11.1 kmh SSW 11.5 mph18.5 kmh 30.36 in1028.1 mb - 0.00 in0.0 mm 0.00 in0.0 mm
07:30 AM 49.3°F9.6°C 46.2°F7.9°C 89% Calm Calm 9.2 mph14.8 kmh 30.36 in1028.1 mb - 0.00 in0.0 mm 0.00 in0.0 mm
07:40 AM 49.2°F9.6°C 46.1°F7.8°C 89% Calm Calm -- 30.36 in1028.1 mb - 0.00 in0.0 mm 0.00 in0.0 mm
07:50 AM 49.2°F9.6°C 46.1°F7.8°C 89% 5.8 mph SW9.3 kmh SW 9.2 mph14.8 kmh 30.36 in1028.1 mb - 0.00 in0.0 mm 0.00 in0.0 mm
08:00 AM 49.3°F9.6°C 46.5°F8.1°C 90% 6.9 mph SW11.1 kmh SW 11.5 mph18.5 kmh 30.36 in1028.1 mb - 0.00 in0.0 mm 0.00 in0.0 mm
08:10 AM 49.4°F9.7°C 46.6°F8.1°C 90% 2.3 mph SW3.7 kmh SW 11.5 mph18.5 kmh 30.36 in1028.1 mb - 0.00 in0.0 mm 0.00 in0.0 mm
08:20 AM 49.4°F9.7°C 46.6°F8.1°C 90% 5.8 mph SSW9.3 kmh SSW 8.1 mph13.0 kmh 30.36 in1028.1 mb - 0.00 in0.0 mm 0.00 in0.0 mm
08:30 AM 49.5°F9.7°C 46.7°F8.2°C 90% 4.6 mph SW7.4 kmh SW 9.2 mph14.8 kmh 30.36 in1028.1 mb - 0.00 in0.0 mm 0.00 in0.0 mm
08:40 AM 49.5°F9.7°C 46.7°F8.2°C 90% 8.1 mph SW13.0 kmh SW 12.7 mph20.4 kmh 30.36 in1028.1 mb - 0.00 in0.0 mm 0.00 in0.0 mm
08:50 AM 49.7°F9.8°C 46.9°F8.3°C 90% 5.8 mph SW9.3 kmh SW 10.4 mph16.7 kmh 30.36 in1028.1 mb - 0.00 in0.0 mm 0.00 in0.0 mm
09:00 AM 49.8°F9.9°C 47.0°F8.3°C 90% 3.5 mph SSW5.6 kmh SSW 9.2 mph14.8 kmh 30.36 in1028.1 mb - 0.00 in0.0 mm 0.00 in0.0 mm
09:10 AM 50.1°F10.1°C 47.3°F8.5°C 90% 5.8 mph SW9.3 kmh SW 12.7 mph20.4 kmh 30.35 in1027.8 mb - 0.00 in0.0 mm 0.00 in0.0 mm
09:20 AM 50.4°F10.2°C 47.3°F8.5°C 89% 5.8 mph SSW9.3 kmh SSW 10.4 mph16.7 kmh 30.36 in1028.1 mb - 0.00 in0.0 mm 0.00 in0.0 mm
09:30 AM 50.6°F10.3°C 47.5°F8.6°C 89% 8.1 mph SSW13.0 kmh SSW 11.5 mph18.5 kmh 30.35 in1027.8 mb - 0.00 in0.0 mm 0.00 in0.0 mm
09:40 AM 50.8°F10.4°C 47.4°F8.6°C 88% 10.4 mph SSW16.7 kmh SSW 18.4 mph29.6 kmh 30.35 in1027.8 mb - 0.00 in0.0 mm 0.00 in0.0 mm
09:50 AM 51.0°F10.6°C 47.6°F8.7°C 88% 8.1 mph SW13.0 kmh SW 11.5 mph18.5 kmh 30.36 in1028.1 mb - 0.00 in0.0 mm 0.00 in0.0 mm
10:00 AM 51.2°F10.7°C 47.8°F8.8°C 88% 6.9 mph SW11.1 kmh SW 11.5 mph18.5 kmh 30.36 in1028.1 mb - 0.00 in0.0 mm 0.00 in0.0 mm
10:10 AM 51.4°F10.8°C 47.9°F8.8°C 88% 8.1 mph SW13.0 kmh SW 15.0 mph24.1 kmh 30.35 in1027.8 mb - 0.00 in0.0 mm 0.00 in0.0 mm
10:20 AM 51.5°F10.8°C 48.1°F8.9°C 88% 9.2 mph SW14.8 kmh SW 13.8 mph22.2 kmh 30.35 in1027.8 mb - 0.00 in0.0 mm 0.00 in0.0 mm
10:30 AM 51.7°F10.9°C 48.0°F8.9°C 87% 5.8 mph SSW9.3 kmh SSW 9.2 mph14.8 kmh 30.35 in1027.8 mb - 0.00 in0.0 mm 0.00 in0.0 mm
10:40 AM 51.8°F11.0°C 48.1°F8.9°C 87% 8.1 mph SSW13.0 kmh SSW 11.5 mph18.5 kmh 30.35 in1027.8 mb - 0.00 in0.0 mm 0.00 in0.0 mm
10:50 AM 51.9°F11.1°C 48.2°F9.0°C 87% 8.1 mph SSW13.0 kmh SSW 11.5 mph18.5 kmh 30.35 in1027.8 mb - 0.00 in0.0 mm 0.00 in0.0 mm
11:00 AM 52.3°F11.3°C 48.5°F9.2°C 87% 6.9 mph SW11.1 kmh SW 9.2 mph14.8 kmh 30.35 in1027.8 mb - 0.00 in0.0 mm 0.00 in0.0 mm
11:10 AM 52.7°F11.5°C 48.6°F9.2°C 86% 8.1 mph SW13.0 kmh SW 12.7 mph20.4 kmh 30.34 in1027.4 mb - 0.00 in0.0 mm 0.00 in0.0 mm
11:20 AM 53.1°F11.7°C 49.0°F9.4°C 86% 10.4 mph SW16.7 kmh SW 18.4 mph29.6 kmh 30.35 in1027.8 mb - 0.00 in0.0 mm 0.00 in0.0 mm
11:30 AM 53.5°F11.9°C 49.1°F9.5°C 85% 8.1 mph SW13.0 kmh SW 19.6 mph31.5 kmh 30.35 in1027.8 mb - 0.00 in0.0 mm 0.00 in0.0 mm
11:40 AM 53.9°F12.2°C 49.5°F9.7°C 85% 10.4 mph SW16.7 kmh SW 18.4 mph29.6 kmh 30.34 in1027.4 mb - 0.00 in0.0 mm 0.00 in0.0 mm
11:50 AM 54.5°F12.5°C 49.8°F9.9°C 84% 10.4 mph SW16.7 kmh SW 15.0 mph24.1 kmh 30.34 in1027.4 mb - 0.00 in0.0 mm 0.00 in0.0 mm
12:00 PM 54.3°F12.4°C 49.6°F9.8°C 84% 9.2 mph SW14.8 kmh SW 16.1 mph25.9 kmh 30.33 in1027.1 mb - 0.00 in0.0 mm 0.00 in0.0 mm
12:10 PM 54.3°F12.4°C 49.9°F9.9°C 85% 10.4 mph SW16.7 kmh SW 20.7 mph33.3 kmh 30.33 in1027.1 mb - 0.00 in0.0 mm 0.00 in0.0 mm
12:20 PM 54.3°F12.4°C 50.2°F10.1°C 86% 8.1 mph SSW13.0 kmh SSW 11.5 mph18.5 kmh 30.33 in1027.1 mb - 0.00 in0.0 mm 0.00 in0.0 mm
12:30 PM 54.2°F12.3°C 50.1°F10.1°C 86% 9.2 mph SW14.8 kmh SW 13.8 mph22.2 kmh 30.33 in1027.1 mb - 0.00 in0.0 mm 0.00 in0.0 mm
12:40 PM 53.9°F12.2°C 50.1°F10.1°C 87% 8.1 mph SW13.0 kmh SW 13.8 mph22.2 kmh 30.33 in1027.1 mb - 0.00 in0.0 mm 0.00 in0.0 mm
12:50 PM 53.7°F12.1°C 50.2°F10.1°C 88% 6.9 mph SW11.1 kmh SW 9.2 mph14.8 kmh 30.33 in1027.1 mb - 0.00 in0.0 mm 0.00 in0.0 mm
01:00 PM 53.8°F12.1°C 50.6°F10.3°C 89% 8.1 mph SW13.0 kmh SW 18.4 mph29.6 kmh 30.33 in1027.1 mb - 0.00 in0.0 mm 0.00 in0.0 mm
01:10 PM 53.9°F12.2°C 50.7°F10.4°C 89% 4.6 mph SW7.4 kmh SW 18.4 mph29.6 kmh 30.34 in1027.4 mb - 0.00 in0.0 mm 0.00 in0.0 mm
01:20 PM 53.7°F12.1°C 50.5°F10.3°C 89% 8.1 mph SW13.0 kmh SW 11.5 mph18.5 kmh 30.34 in1027.4 mb - 0.00 in0.0 mm 0.00 in0.0 mm
01:30 PM 53.6°F12.0°C 50.7°F10.4°C 90% 4.6 mph SW7.4 kmh SW 13.8 mph22.2 kmh 30.34 in1027.4 mb - 0.00 in0.0 mm 0.00 in0.0 mm
01:40 PM 53.2°F11.8°C 50.6°F10.3°C 91% 6.9 mph SW11.1 kmh SW 11.5 mph18.5 kmh 30.34 in1027.4 mb - 0.00 in0.0 mm 0.00 in0.0 mm
01:50 PM 53.1°F11.7°C 50.5°F10.3°C 91% 3.5 mph SW5.6 kmh SW 11.5 mph18.5 kmh 30.34 in1027.4 mb - 0.00 in0.0 mm 0.00 in0.0 mm
02:00 PM 52.0°F11.1°C 49.1°F9.5°C 90% 1.2 mph NW1.9 kmh NW 11.5 mph18.5 kmh 30.35 in1027.8 mb - 0.01 in0.3 mm 0.01 in0.3 mm
02:10 PM 51.0°F10.6°C 48.8°F9.3°C 92% 5.8 mph NW9.3 kmh NW 11.5 mph18.5 kmh 30.35 in1027.8 mb - 0.01 in0.3 mm 0.02 in0.5 mm
02:20 PM 50.5°F10.3°C 48.6°F9.2°C 93% Calm Calm 3.5 mph5.6 kmh 30.35 in1027.8 mb - 0.01 in0.3 mm 0.02 in0.5 mm
02:30 PM 50.5°F10.3°C 48.6°F9.2°C 93% 1.2 mph SW1.9 kmh SW 6.9 mph11.1 kmh 30.35 in1027.8 mb - 0.00 in0.0 mm 0.02 in0.5 mm
02:40 PM 50.7°F10.4°C 49.0°F9.4°C 94% 1.2 mph WNW1.9 kmh WNW 4.6 mph7.4 kmh 30.36 in1028.1 mb - 0.00 in0.0 mm 0.02 in0.5 mm
02:50 PM 50.5°F10.3°C 48.6°F9.2°C 93% 3.5 mph WNW5.6 kmh WNW 6.9 mph11.1 kmh 30.36 in1028.1 mb - 0.00 in0.0 mm 0.02 in0.5 mm
03:00 PM 50.4°F10.2°C 48.5°F9.2°C 93% 1.2 mph WNW1.9 kmh WNW 3.5 mph5.6 kmh 30.36 in1028.1 mb - 0.00 in0.0 mm 0.02 in0.5 mm
03:10 PM 50.3°F10.2°C 48.1°F8.9°C 92% 3.5 mph NW5.6 kmh NW 9.2 mph14.8 kmh 30.37 in1028.4 mb - 0.00 in0.0 mm 0.02 in0.5 mm
03:20 PM 50.0°F10.0°C 47.5°F8.6°C 91% Calm Calm 6.9 mph11.1 kmh 30.37 in1028.4 mb - 0.00 in0.0 mm 0.02 in0.5 mm
03:30 PM 49.9°F9.9°C 47.4°F8.6°C 91% 3.5 mph NW5.6 kmh NW 11.5 mph18.5 kmh 30.38 in1028.8 mb - 0.00 in0.0 mm 0.02 in0.5 mm
03:40 PM 49.7°F9.8°C 47.2°F8.4°C 91% 2.3 mph WSW3.7 kmh WSW 8.1 mph13.0 kmh 30.38 in1028.8 mb - 0.00 in0.0 mm 0.02 in0.5 mm
03:50 PM 49.5°F9.7°C 47.0°F8.3°C 91% 1.2 mph W1.9 kmh W 10.4 mph16.7 kmh 30.38 in1028.8 mb - 0.00 in0.0 mm 0.02 in0.5 mm
04:00 PM 49.3°F9.6°C 47.0°F8.3°C 92% 1.2 mph W1.9 kmh W 3.5 mph5.6 kmh 30.38 in1028.8 mb - 0.00 in0.0 mm 0.02 in0.5 mm
04:10 PM 48.9°F9.4°C 46.7°F8.2°C 92% 2.3 mph NW3.7 kmh NW 4.6 mph7.4 kmh 30.39 in1029.1 mb - 0.00 in0.0 mm 0.02 in0.5 mm
04:20 PM 48.5°F9.2°C 46.3°F7.9°C 92% 2.3 mph W3.7 kmh W 5.8 mph9.3 kmh 30.39 in1029.1 mb - 0.00 in0.0 mm 0.02 in0.5 mm
04:30 PM 48.1°F8.9°C 45.9°F7.7°C 92% Calm Calm -- 30.39 in1029.1 mb - 0.00 in0.0 mm 0.02 in0.5 mm
04:40 PM 47.8°F8.8°C 45.6°F7.6°C 92% Calm Calm -- 30.40 in1029.5 mb - 0.00 in0.0 mm 0.02 in0.5 mm
04:50 PM 47.5°F8.6°C 45.3°F7.4°C 92% Calm Calm 1.2 mph1.9 kmh 30.40 in1029.5 mb - 0.00 in0.0 mm 0.02 in0.5 mm
05:00 PM 47.1°F8.4°C 44.9°F7.2°C 92% Calm Calm 1.2 mph1.9 kmh 30.40 in1029.5 mb - 0.00 in0.0 mm 0.02 in0.5 mm
05:10 PM 46.7°F8.2°C 44.5°F6.9°C 92% Calm Calm 2.3 mph3.7 kmh 30.41 in1029.8 mb - 0.00 in0.0 mm 0.02 in0.5 mm
05:20 PM 46.3°F7.9°C 44.1°F6.7°C 92% Calm Calm 3.5 mph5.6 kmh 30.41 in1029.8 mb - 0.00 in0.0 mm 0.02 in0.5 mm
05:30 PM 46.0°F7.8°C 43.8°F6.6°C 92% 2.3 mph NW3.7 kmh NW 9.2 mph14.8 kmh 30.41 in1029.8 mb - 0.00 in0.0 mm 0.02 in0.5 mm
05:40 PM 45.6°F7.6°C 43.4°F6.3°C 92% 3.5 mph NW5.6 kmh NW 6.9 mph11.1 kmh 30.41 in1029.8 mb - 0.00 in0.0 mm 0.02 in0.5 mm
05:50 PM 45.5°F7.5°C 43.0°F6.1°C 91% 2.3 mph NW3.7 kmh NW 5.8 mph9.3 kmh 30.43 in1030.5 mb - 0.00 in0.0 mm 0.02 in0.5 mm
06:00 PM 45.2°F7.3°C 42.8°F6.0°C 91% Calm Calm 6.9 mph11.1 kmh 30.43 in1030.5 mb - 0.00 in0.0 mm 0.02 in0.5 mm
06:10 PM 45.0°F7.2°C 42.3°F5.7°C 90% Calm Calm -- 30.43 in1030.5 mb - 0.00 in0.0 mm 0.02 in0.5 mm
06:20 PM 44.7°F7.1°C 41.9°F5.5°C 90% Calm Calm -- 30.43 in1030.5 mb - 0.00 in0.0 mm 0.02 in0.5 mm
06:30 PM 44.3°F6.8°C 41.6°F5.3°C 90% 1.2 mph WSW1.9 kmh WSW -- 30.43 in1030.5 mb - 0.00 in0.0 mm 0.02 in0.5 mm
06:40 PM 44.0°F6.7°C 41.3°F5.2°C 90% Calm Calm 3.5 mph5.6 kmh 30.44 in1030.8 mb - 0.00 in0.0 mm 0.02 in0.5 mm
06:50 PM 43.8°F6.6°C 40.8°F4.9°C 89% Calm Calm -- 30.45 in1031.2 mb - 0.00 in0.0 mm 0.02 in0.5 mm
07:00 PM 43.5°F6.4°C 40.8°F4.9°C 90% Calm Calm -- 30.45 in1031.2 mb - 0.00 in0.0 mm 0.02 in0.5 mm
07:10 PM 43.2°F6.2°C 40.2°F4.6°C 89% Calm Calm -- 30.45 in1031.2 mb - 0.00 in0.0 mm 0.02 in0.5 mm
07:20 PM 42.9°F6.1°C 39.9°F4.4°C 89% Calm Calm -- 30.46 in1031.5 mb - 0.00 in0.0 mm 0.02 in0.5 mm
07:40 PM 42.0°F5.6°C 38.9°F3.8°C 89% Calm Calm -- 30.46 in1031.5 mb - 0.00 in0.0 mm 0.02 in0.5 mm
07:50 PM 41.5°F5.3°C 38.8°F3.8°C 90% Calm Calm -- 30.46 in1031.5 mb - 0.00 in0.0 mm 0.02 in0.5 mm
08:00 PM 41.1°F5.1°C 38.4°F3.6°C 90% Calm Calm -- 30.46 in1031.5 mb - 0.00 in0.0 mm 0.02 in0.5 mm
08:10 PM 40.8°F4.9°C 38.4°F3.6°C 91% Calm Calm -- 30.46 in1031.5 mb - 0.00 in0.0 mm 0.02 in0.5 mm
08:20 PM 40.6°F4.8°C 38.2°F3.4°C 91% Calm Calm -- 30.47 in1031.8 mb - 0.00 in0.0 mm 0.02 in0.5 mm
08:30 PM 40.4°F4.7°C 38.0°F3.3°C 91% Calm Calm 1.2 mph1.9 kmh 30.47 in1031.8 mb - 0.00 in0.0 mm 0.02 in0.5 mm
08:40 PM 40.4°F4.7°C 38.3°F3.5°C 92% Calm Calm -- 30.48 in1032.2 mb - 0.00 in0.0 mm 0.02 in0.5 mm
08:50 PM 40.2°F4.6°C 37.8°F3.2°C 91% Calm Calm 3.5 mph5.6 kmh 30.48 in1032.2 mb - 0.00 in0.0 mm 0.02 in0.5 mm
09:00 PM 40.1°F4.5°C 38.0°F3.3°C 92% Calm Calm -- 30.49 in1032.5 mb - 0.00 in0.0 mm 0.02 in0.5 mm
09:10 PM 40.0°F4.4°C 37.9°F3.3°C 92% Calm Calm -- 30.49 in1032.5 mb - 0.00 in0.0 mm 0.02 in0.5 mm
09:20 PM 39.7°F4.3°C 37.3°F2.9°C 91% Calm Calm -- 30.50 in1032.8 mb - 0.00 in0.0 mm 0.02 in0.5 mm
09:30 PM 39.4°F4.1°C 37.0°F2.8°C 91% Calm Calm -- 30.49 in1032.5 mb - 0.00 in0.0 mm 0.02 in0.5 mm
09:40 PM 39.1°F3.9°C 37.0°F2.8°C 92% Calm Calm -- 30.50 in1032.8 mb - 0.00 in0.0 mm 0.02 in0.5 mm
09:50 PM 38.8°F3.8°C 36.7°F2.6°C 92% Calm Calm -- 30.49 in1032.5 mb - 0.00 in0.0 mm 0.02 in0.5 mm
10:00 PM 38.6°F3.7°C 36.5°F2.5°C 92% Calm Calm -- 30.50 in1032.8 mb - 0.00 in0.0 mm 0.02 in0.5 mm
10:10 PM 38.2°F3.4°C 36.1°F2.3°C 92% Calm Calm -- 30.50 in1032.8 mb - 0.00 in0.0 mm 0.02 in0.5 mm
10:20 PM 37.9°F3.3°C 35.8°F2.1°C 92% Calm Calm -- 30.50 in1032.8 mb - 0.00 in0.0 mm 0.02 in0.5 mm
10:30 PM 37.7°F3.2°C 35.6°F2.0°C 92% Calm Calm -- 30.49 in1032.5 mb - 0.00 in0.0 mm 0.02 in0.5 mm
10:40 PM 37.7°F3.2°C 35.9°F2.2°C 93% Calm Calm -- 30.50 in1032.8 mb - 0.00 in0.0 mm 0.02 in0.5 mm
10:50 PM 37.3°F2.9°C 35.2°F1.8°C 92% Calm Calm -- 30.50 in1032.8 mb - 0.00 in0.0 mm 0.02 in0.5 mm
11:00 PM 36.9°F2.7°C 34.8°F1.6°C 92% Calm Calm -- 30.50 in1032.8 mb - 0.00 in0.0 mm 0.02 in0.5 mm
11:10 PM 36.6°F2.6°C 34.5°F1.4°C 92% Calm Calm -- 30.50 in1032.8 mb - 0.00 in0.0 mm 0.02 in0.5 mm
11:20 PM 36.2°F2.3°C 34.4°F1.3°C 93% Calm Calm -- 30.50 in1032.8 mb - 0.00 in0.0 mm 0.02 in0.5 mm
11:30 PM 36.1°F2.3°C 34.3°F1.3°C 93% Calm Calm -- 30.50 in1032.8 mb - 0.00 in0.0 mm 0.02 in0.5 mm
11:40 PM 36.1°F2.3°C 34.3°F1.3°C 93% Calm Calm -- 30.50 in1032.8 mb - 0.00 in0.0 mm 0.02 in0.5 mm
11:50 PM 36.0°F2.2°C 34.4°F1.3°C 94% Calm Calm -- 30.50 in1032.8 mb - 0.00 in0.0 mm 0.02 in0.5 mm